createdAt,value
2018-05-09T00:00:45.436Z,36.8
2018-05-09T00:01:54.689Z,36.88
2018-05-09T00:03:03.859Z,36.88
2018-05-09T00:04:13.287Z,36.88
2018-05-09T00:05:22.244Z,36.78
2018-05-09T00:06:31.653Z,36.88
2018-05-09T00:07:41.339Z,36.78
2018-05-09T00:08:51.021Z,36.78
2018-05-09T00:10:00.748Z,36.88
2018-05-09T00:11:10.407Z,36.98
2018-05-09T00:12:20.107Z,36.88
2018-05-09T00:13:29.786Z,36.98
2018-05-09T00:14:39.223Z,36.78
2018-05-09T00:15:48.184Z,36.98
2018-05-09T00:16:57.995Z,36.88
2018-05-09T00:18:07.670Z,36.98
2018-05-09T00:19:17.359Z,36.98
2018-05-09T00:20:26.813Z,36.88
2018-05-09T00:21:36.238Z,36.68
2018-05-09T00:22:45.388Z,36.78
2018-05-09T00:23:54.584Z,36.68
2018-05-09T00:25:03.781Z,36.68
2018-05-09T00:26:13.465Z,36.78
2018-05-09T00:27:22.376Z,36.68
2018-05-09T00:28:31.803Z,36.88
2018-05-09T00:29:41.834Z,36.68
2018-05-09T00:30:51.249Z,36.68
2018-05-09T00:32:00.925Z,36.88
2018-05-09T00:33:10.079Z,36.88
2018-05-09T00:34:19.530Z,36.88
2018-05-09T00:35:28.964Z,36.78
2018-05-09T00:36:38.130Z,36.68
2018-05-09T00:37:47.820Z,36.78
2018-05-09T00:38:57.243Z,36.58
2018-05-09T00:40:06.417Z,36.49
2018-05-09T00:41:15.881Z,36.49
2018-05-09T00:42:25.054Z,36.58
2018-05-09T00:43:34.519Z,36.49
2018-05-09T00:44:43.700Z,36.49
2018-05-09T00:45:53.403Z,36.58
2018-05-09T00:47:03.343Z,36.49
2018-05-09T00:48:12.767Z,36.49
2018-05-09T00:49:22.451Z,36.3
2018-05-09T00:50:31.641Z,36.3
2018-05-09T00:51:40.796Z,36.2
2018-05-09T00:52:50.214Z,36.3
2018-05-09T00:54:00.165Z,36.2
2018-05-09T00:55:08.802Z,36.2
2018-05-09T00:56:18.747Z,36.2
2018-05-09T00:57:27.904Z,36.4
2018-05-09T00:58:36.829Z,36.1
2018-05-09T00:59:46.760Z,36.49
2018-05-09T01:00:55.939Z,36.49
2018-05-09T01:02:05.383Z,36.49
2018-05-09T01:03:14.300Z,36.58
2018-05-09T01:04:23.483Z,36.49
2018-05-09T01:05:32.934Z,36.49
2018-05-09T01:06:42.422Z,36.49
2018-05-09T01:07:52.143Z,36.4
2018-05-09T01:09:01.559Z,36.49
2018-05-09T01:10:10.985Z,36.49
2018-05-09T01:11:20.484Z,36.2
2018-05-09T01:12:29.414Z,36.3
2018-05-09T01:13:38.850Z,36.3
2018-05-09T01:15:01.055Z,36.2
2018-05-09T01:16:10.729Z,36.4
2018-05-09T01:17:20.164Z,36.3
2018-05-09T01:18:29.660Z,36.3
2018-05-09T01:19:39.034Z,36.4
2018-05-09T01:20:48.742Z,36.4
2018-05-09T01:21:57.902Z,36.3
2018-05-09T01:23:07.362Z,36.3
2018-05-09T01:24:16.761Z,36.3
2018-05-09T01:25:26.175Z,36.28
2018-05-09T01:26:35.875Z,36.18
2018-05-09T01:27:44.771Z,36.3
2018-05-09T01:28:54.205Z,36.2
2018-05-09T01:30:04.143Z,36.2
2018-05-09T01:31:13.842Z,36.4
2018-05-09T01:32:22.740Z,36.3
2018-05-09T01:33:31.945Z,36.3
2018-05-09T01:34:41.352Z,36.1
2018-05-09T01:35:51.047Z,36.4
2018-05-09T01:37:00.506Z,36.1
2018-05-09T01:38:10.189Z,36.08
2018-05-09T01:39:19.384Z,36
2018-05-09T01:40:28.834Z,36
2018-05-09T01:41:38.540Z,35.91
2018-05-09T01:42:47.464Z,35.91
2018-05-09T01:43:56.885Z,36
2018-05-09T01:45:06.557Z,36
2018-05-09T01:46:15.986Z,36.1
2018-05-09T01:47:25.154Z,36.18
2018-05-09T01:48:34.575Z,35.99
2018-05-09T01:49:43.771Z,36.1
2018-05-09T01:50:53.184Z,35.91
2018-05-09T01:52:02.856Z,36.1
2018-05-09T01:53:12.533Z,36.2
2018-05-09T01:54:21.978Z,35.99
2018-05-09T01:55:31.693Z,35.81
2018-05-09T01:56:40.846Z,36
2018-05-09T01:57:50.255Z,36
2018-05-09T01:58:59.424Z,36.18
2018-05-09T02:00:08.897Z,36.18
2018-05-09T02:01:17.787Z,35.89
2018-05-09T02:02:27.191Z,35.99
2018-05-09T02:03:36.641Z,36.08
2018-05-09T02:04:45.814Z,35.99
2018-05-09T02:05:55.276Z,36.08
2018-05-09T02:07:04.728Z,35.99
2018-05-09T02:08:14.159Z,36.18
2018-05-09T02:09:23.838Z,36.08
2018-05-09T02:10:33.263Z,36.08
2018-05-09T02:11:42.476Z,35.89
2018-05-09T02:12:52.430Z,36.18
2018-05-09T02:14:01.840Z,35.99
2018-05-09T02:15:11.282Z,35.89
2018-05-09T02:16:20.730Z,35.99
2018-05-09T02:17:29.967Z,36.28
2018-05-09T02:18:39.989Z,35.99
2018-05-09T02:19:49.933Z,36.08
2018-05-09T02:20:59.345Z,35.99
2018-05-09T02:22:08.766Z,35.8
2018-05-09T02:23:18.218Z,35.8
2018-05-09T02:24:28.184Z,35.7
2018-05-09T02:25:37.621Z,35.7
2018-05-09T02:26:46.790Z,35.6
2018-05-09T02:27:55.709Z,35.8
2018-05-09T02:29:05.142Z,35.7
2018-05-09T02:30:14.379Z,35.8
2018-05-09T02:31:23.557Z,35.6
2018-05-09T02:32:33.235Z,35.91
2018-05-09T02:33:42.702Z,35.8
2018-05-09T02:34:51.888Z,35.7
2018-05-09T02:36:01.331Z,35.62
2018-05-09T02:37:10.309Z,35.7
2018-05-09T02:38:20.338Z,35.72
2018-05-09T02:39:29.774Z,35.7
2018-05-09T02:40:39.502Z,35.62
2018-05-09T02:41:49.451Z,35.6
2018-05-09T02:42:58.899Z,35.62
2018-05-09T02:44:08.327Z,35.6
2018-05-09T02:45:17.788Z,35.6
2018-05-09T02:46:27.240Z,35.7
2018-05-09T02:47:36.387Z,35.52
2018-05-09T02:48:45.622Z,35.42
2018-05-09T02:49:55.739Z,35.42
2018-05-09T02:51:06.231Z,35.42
2018-05-09T02:52:15.142Z,35.5
2018-05-09T02:53:24.318Z,35.72
2018-05-09T02:54:34.000Z,35.62
2018-05-09T02:55:43.690Z,35.62
2018-05-09T02:56:53.135Z,35.52
2018-05-09T02:58:03.075Z,35.62
2018-05-09T02:59:12.316Z,35.62
2018-05-09T03:00:22.036Z,35.62
2018-05-09T03:01:31.722Z,35.52
2018-05-09T03:02:40.893Z,35.5
2018-05-09T03:03:50.401Z,35.62
2018-05-09T03:04:59.827Z,35.72
2018-05-09T03:06:09.257Z,35.62
2018-05-09T03:07:18.188Z,35.5
2018-05-09T03:08:27.883Z,35.81
2018-05-09T03:09:37.584Z,35.5
2018-05-09T03:10:47.272Z,35.52
2018-05-09T03:11:56.961Z,35.52
2018-05-09T03:13:06.129Z,35.52
2018-05-09T03:14:16.085Z,35.5
2018-05-09T03:15:25.765Z,35.72
2018-05-09T03:16:34.735Z,35.62
2018-05-09T03:17:44.168Z,35.7
2018-05-09T03:18:53.575Z,35.7
2018-05-09T03:20:03.252Z,35.72
2018-05-09T03:21:12.842Z,35.6
2018-05-09T03:22:22.511Z,35.42
2018-05-09T03:23:31.178Z,35.33
2018-05-09T03:24:40.610Z,35.6
2018-05-09T03:25:50.038Z,35.31
2018-05-09T03:26:59.715Z,35.5
2018-05-09T03:28:08.662Z,35.33
2018-05-09T03:29:17.863Z,35.33
2018-05-09T03:30:27.033Z,35.52
2018-05-09T03:31:36.987Z,35.5
2018-05-09T03:32:46.146Z,35.33
2018-05-09T03:33:55.090Z,35.52
2018-05-09T03:35:04.520Z,35.42
2018-05-09T03:36:13.683Z,35.42
2018-05-09T03:37:23.292Z,35.31
2018-05-09T03:38:32.894Z,35.42
2018-05-09T03:39:41.536Z,35.33
2018-05-09T03:40:50.979Z,35.23
2018-05-09T03:41:59.907Z,35.23
2018-05-09T03:43:09.630Z,35.33
2018-05-09T03:44:19.060Z,35.31
2018-05-09T03:45:28.467Z,35.33
2018-05-09T03:46:37.641Z,35.33
2018-05-09T03:47:47.333Z,35.33
2018-05-09T03:48:56.278Z,35.31
2018-05-09T03:50:05.696Z,35.33
2018-05-09T03:51:14.871Z,35.33
2018-05-09T03:52:23.765Z,35.33
2018-05-09T03:53:33.453Z,35.33
2018-05-09T03:54:42.909Z,35.33
2018-05-09T03:55:52.346Z,35.33
2018-05-09T03:57:01.534Z,35.33
2018-05-09T03:58:10.951Z,35.31
2018-05-09T03:59:20.654Z,35.33
2018-05-09T04:00:30.321Z,35.33
2018-05-09T04:01:40.027Z,35.33
2018-05-09T04:02:49.453Z,35.33
2018-05-09T04:03:58.372Z,35.31
2018-05-09T04:05:07.545Z,35.31
2018-05-09T04:06:17.054Z,35.31
2018-05-09T04:07:26.217Z,35.31
2018-05-09T04:08:35.656Z,35.31
2018-05-09T04:09:45.084Z,35.33
2018-05-09T04:10:54.500Z,35.41
2018-05-09T04:12:03.659Z,35.21
2018-05-09T04:13:13.689Z,35.31
2018-05-09T04:14:23.277Z,35.21
2018-05-09T04:15:32.447Z,35.21
2018-05-09T04:16:41.598Z,35.21
2018-05-09T04:17:50.761Z,35.31
2018-05-09T04:19:00.450Z,35.31
2018-05-09T04:20:09.871Z,35.41
2018-05-09T04:21:19.556Z,35.31
2018-05-09T04:22:29.529Z,35.21
2018-05-09T04:23:38.697Z,35.31
2018-05-09T04:24:48.384Z,35.31
2018-05-09T04:25:57.842Z,35.31
2018-05-09T04:27:07.539Z,35.31
2018-05-09T04:28:16.839Z,35.31
2018-05-09T04:29:26.210Z,35.31
2018-05-09T04:30:35.931Z,35.31
2018-05-09T04:31:45.608Z,35.31
2018-05-09T04:32:55.059Z,35.31
2018-05-09T04:34:04.468Z,35.31
2018-05-09T04:35:13.680Z,35.41
2018-05-09T04:36:23.913Z,35.31
2018-05-09T04:37:33.593Z,35.31
2018-05-09T04:38:43.543Z,35.31
2018-05-09T04:39:52.726Z,35.33
2018-05-09T04:41:02.157Z,35.41
2018-05-09T04:42:11.613Z,35.41
2018-05-09T04:43:21.060Z,35.31
2018-05-09T04:44:30.255Z,35.41
2018-05-09T04:45:39.699Z,35.41
2018-05-09T04:46:49.121Z,35.41
2018-05-09T04:47:58.806Z,35.41
2018-05-09T04:49:09.105Z,35.42
2018-05-09T04:50:18.783Z,35.41
2018-05-09T04:51:28.469Z,35.41
2018-05-09T04:52:37.923Z,35.31
2018-05-09T04:53:47.379Z,35.31
2018-05-09T04:54:56.565Z,35.41
2018-05-09T04:56:05.766Z,35.41
2018-05-09T04:57:15.456Z,35.41
2018-05-09T04:58:25.214Z,35.41
2018-05-09T04:59:34.500Z,35.41
2018-05-09T05:00:44.179Z,35.33
2018-05-09T05:01:53.602Z,35.41
2018-05-09T05:03:03.044Z,35.31
2018-05-09T05:04:12.485Z,35.31
2018-05-09T05:05:22.170Z,35.31
2018-05-09T05:06:31.601Z,35.31
2018-05-09T05:07:41.335Z,35.21
2018-05-09T05:08:51.269Z,35.31
2018-05-09T05:10:00.981Z,35.31
2018-05-09T05:11:09.895Z,35.31
2018-05-09T05:12:18.855Z,35.31
2018-05-09T05:13:28.549Z,35.31
2018-05-09T05:14:38.226Z,35.31
2018-05-09T05:15:47.697Z,35.31
2018-05-09T05:16:57.292Z,35.31
2018-05-09T05:18:06.466Z,35.31
2018-05-09T05:19:16.152Z,35.41
2018-05-09T05:20:25.741Z,35.31
2018-05-09T05:21:35.700Z,35.21
2018-05-09T05:22:44.867Z,35.5
2018-05-09T05:23:54.884Z,35.23
2018-05-09T05:25:04.307Z,35.21
2018-05-09T05:26:14.035Z,35.33
2018-05-09T05:27:23.448Z,35.31
2018-05-09T05:28:33.389Z,35.33
2018-05-09T05:29:42.989Z,35.31
2018-05-09T05:30:52.169Z,35.23
2018-05-09T05:32:01.340Z,35.33
2018-05-09T05:33:11.097Z,35.13
2018-05-09T05:34:21.142Z,35.31
2018-05-09T05:35:30.316Z,35.33
2018-05-09T05:36:39.745Z,35.23
2018-05-09T05:37:49.186Z,35.33
2018-05-09T05:38:58.669Z,35.23
2018-05-09T05:40:07.620Z,35.33
2018-05-09T05:41:17.052Z,35.23
2018-05-09T05:42:26.488Z,35.23
2018-05-09T05:43:35.732Z,35.21
2018-05-09T05:44:45.638Z,35.13
2018-05-09T05:45:55.428Z,35.33
2018-05-09T05:47:04.644Z,35.31
2018-05-09T05:48:13.857Z,35.21
2018-05-09T05:49:23.539Z,35.42
2018-05-09T05:50:33.245Z,35.23
2018-05-09T05:51:42.939Z,35.31
2018-05-09T05:52:52.391Z,35.23
2018-05-09T05:54:02.270Z,35.33
2018-05-09T05:55:11.943Z,35.12
2018-05-09T05:56:22.376Z,35.13
2018-05-09T05:57:32.323Z,35.31
2018-05-09T05:58:41.506Z,35.13
2018-05-09T05:59:51.361Z,35.33
2018-05-09T06:01:01.336Z,35.13
2018-05-09T06:02:11.330Z,35.31
2018-05-09T06:03:20.995Z,35.42
2018-05-09T06:04:31.070Z,35.33
2018-05-09T06:05:41.014Z,35.33
2018-05-09T06:06:51.127Z,35.42
2018-05-09T06:08:00.706Z,35.33
2018-05-09T06:09:10.048Z,35.42
2018-05-09T06:10:19.211Z,35.23
2018-05-09T06:11:28.906Z,35.33
2018-05-09T06:12:38.614Z,35.33
2018-05-09T06:13:48.082Z,35.33
2018-05-09T06:14:57.779Z,35.31
2018-05-09T06:16:07.219Z,35.42
2018-05-09T06:17:17.210Z,35.33
2018-05-09T06:18:27.206Z,35.33
2018-05-09T06:19:36.632Z,35.33
2018-05-09T06:20:46.329Z,35.42
2018-05-09T06:21:55.777Z,35.33
2018-05-09T06:23:04.708Z,35.33
2018-05-09T06:24:15.046Z,35.21
2018-05-09T06:25:24.983Z,35.23
2018-05-09T06:26:34.414Z,35.13
2018-05-09T06:27:44.094Z,35.23
2018-05-09T06:28:54.067Z,35.42
2018-05-09T06:30:03.766Z,35.23
2018-05-09T06:31:13.459Z,35.13
2018-05-09T06:32:23.207Z,35.23
2018-05-09T06:33:32.642Z,35.31
2018-05-09T06:34:42.117Z,35.33
2018-05-09T06:35:51.602Z,35.33
2018-05-09T06:37:00.771Z,35.33
2018-05-09T06:38:10.298Z,35.31
2018-05-09T06:39:19.747Z,35.42
2018-05-09T06:40:29.441Z,35.42
2018-05-09T06:41:39.288Z,35.42
2018-05-09T06:42:49.367Z,35.42
2018-05-09T06:43:59.125Z,35.33
2018-05-09T06:45:08.553Z,35.52
2018-05-09T06:46:17.461Z,35.42
2018-05-09T06:47:27.425Z,35.33
2018-05-09T06:48:37.123Z,35.33
2018-05-09T06:49:46.630Z,35.42
2018-05-09T06:50:55.872Z,35.33
2018-05-09T06:52:04.833Z,35.42
2018-05-09T06:53:14.793Z,35.33
2018-05-09T06:54:24.777Z,35.42
2018-05-09T06:55:34.196Z,35.33
2018-05-09T06:56:43.365Z,35.33
2018-05-09T06:57:52.796Z,35.33
2018-05-09T06:59:02.822Z,35.42
2018-05-09T07:00:12.087Z,35.42
2018-05-09T07:01:21.260Z,35.42
2018-05-09T07:02:30.985Z,35.42
2018-05-09T07:03:40.684Z,35.42
2018-05-09T07:04:49.619Z,35.33
2018-05-09T07:05:58.811Z,35.33
2018-05-09T07:07:08.041Z,35.42
2018-05-09T07:08:17.217Z,35.33
2018-05-09T07:09:26.668Z,35.42
2018-05-09T07:10:35.914Z,35.42
2018-05-09T07:11:45.617Z,35.33
2018-05-09T07:12:54.795Z,35.33
2018-05-09T07:14:04.222Z,35.33
2018-05-09T07:15:13.409Z,35.33
2018-05-09T07:16:22.565Z,35.42
2018-05-09T07:17:32.011Z,35.33
2018-05-09T07:18:41.193Z,35.33
2018-05-09T07:19:50.647Z,35.42
2018-05-09T07:21:00.074Z,35.33
2018-05-09T07:22:09.558Z,35.33
2018-05-09T07:23:20.031Z,35.33
2018-05-09T07:24:28.945Z,35.33
2018-05-09T07:25:38.204Z,35.42
2018-05-09T07:26:47.138Z,35.33
2018-05-09T07:27:56.817Z,35.33
2018-05-09T07:29:06.237Z,35.33
2018-05-09T07:30:15.396Z,35.23
2018-05-09T07:31:25.330Z,35.33
2018-05-09T07:32:35.014Z,35.42
2018-05-09T07:33:44.424Z,35.42
2018-05-09T07:34:53.594Z,35.33
2018-05-09T07:36:03.549Z,35.42
2018-05-09T07:37:13.014Z,35.33
2018-05-09T07:38:22.460Z,35.13
2018-05-09T07:39:31.881Z,35.13
2018-05-09T07:40:41.551Z,35.33
2018-05-09T07:41:51.635Z,35.13
2018-05-09T07:43:01.632Z,35.23
2018-05-09T07:44:11.054Z,35.23
2018-05-09T07:45:21.043Z,35.33
2018-05-09T07:46:31.036Z,35.23
2018-05-09T07:47:40.939Z,35.23
2018-05-09T07:48:50.748Z,35.23
2018-05-09T07:50:00.423Z,35.33
2018-05-09T07:51:10.159Z,35.33
2018-05-09T07:52:19.384Z,35.33
2018-05-09T07:53:29.075Z,35.23
2018-05-09T07:54:38.494Z,35.33
2018-05-09T07:55:48.226Z,35.23
2018-05-09T07:56:57.417Z,35.33
2018-05-09T07:58:06.605Z,35.33
2018-05-09T07:59:16.026Z,35.33
2018-05-09T08:00:25.735Z,35.13
2018-05-09T08:01:35.210Z,35.33
2018-05-09T08:02:44.627Z,35.25
2018-05-09T08:03:53.809Z,35.13
2018-05-09T08:05:03.523Z,35.13
2018-05-09T08:06:13.250Z,35.13
2018-05-09T08:07:22.431Z,35.13
2018-05-09T08:08:31.886Z,35.23
2018-05-09T08:09:41.583Z,35.13
2018-05-09T08:10:51.089Z,35.33
2018-05-09T08:12:00.574Z,35.13
2018-05-09T08:13:10.312Z,35.33
2018-05-09T08:14:20.272Z,35.44
2018-05-09T08:15:29.718Z,35.44
2018-05-09T08:16:39.157Z,35.35
2018-05-09T08:17:48.844Z,35.35
2018-05-09T08:18:58.561Z,35.33
2018-05-09T08:20:07.716Z,35.35
2018-05-09T08:21:17.406Z,35.35
2018-05-09T08:22:26.840Z,35.35
2018-05-09T08:23:35.999Z,35.33
2018-05-09T08:24:45.191Z,35.35
2018-05-09T08:25:54.641Z,35.25
2018-05-09T08:27:04.349Z,35.35
2018-05-09T08:28:14.056Z,35.35
2018-05-09T08:29:23.229Z,35.25
2018-05-09T08:30:32.686Z,35.35
2018-05-09T08:31:42.388Z,35.15
2018-05-09T08:32:52.102Z,35.44
2018-05-09T08:34:01.013Z,35.25
2018-05-09T08:35:10.175Z,35.44
2018-05-09T08:36:19.108Z,35.25
2018-05-09T08:37:28.806Z,35.25
2018-05-09T08:38:38.251Z,35.35
2018-05-09T08:39:47.442Z,35.35
2018-05-09T08:40:57.151Z,35.35
2018-05-09T08:42:06.314Z,35.44
2018-05-09T08:43:15.598Z,35.54
2018-05-09T08:44:25.719Z,35.54
2018-05-09T08:45:35.425Z,35.54
2018-05-09T08:46:44.858Z,35.73
2018-05-09T08:47:54.823Z,35.64
2018-05-09T08:49:03.724Z,35.64
2018-05-09T08:50:13.233Z,35.73
2018-05-09T08:51:22.124Z,35.64
2018-05-09T08:52:31.561Z,35.64
2018-05-09T08:53:41.600Z,35.64
2018-05-09T08:54:50.772Z,35.73
2018-05-09T08:55:59.977Z,35.73
2018-05-09T08:57:09.199Z,35.54
2018-05-09T08:58:18.935Z,35.64
2018-05-09T08:59:28.102Z,35.73
2018-05-09T09:00:37.549Z,35.54
2018-05-09T09:01:46.733Z,35.73
2018-05-09T09:02:56.422Z,35.54
2018-05-09T09:04:06.120Z,35.44
2018-05-09T09:05:14.770Z,35.54
2018-05-09T09:06:24.258Z,35.64
2018-05-09T09:07:33.928Z,35.73
2018-05-09T09:08:43.386Z,35.73
2018-05-09T09:09:52.832Z,35.73
2018-05-09T09:11:01.730Z,35.73
2018-05-09T09:12:10.902Z,35.73
2018-05-09T09:13:20.655Z,35.64
2018-05-09T09:14:30.067Z,35.73
2018-05-09T09:15:39.627Z,35.83
2018-05-09T09:16:49.326Z,35.73
2018-05-09T09:17:57.970Z,36.02
2018-05-09T09:19:07.436Z,35.93
2018-05-09T09:20:17.122Z,35.83
2018-05-09T09:21:26.839Z,36.02
2018-05-09T09:22:36.281Z,35.93
2018-05-09T09:23:45.711Z,35.93
2018-05-09T09:24:54.919Z,35.93
2018-05-09T09:26:04.089Z,36.02
2018-05-09T09:27:13.539Z,35.93
2018-05-09T09:28:22.718Z,36.12
2018-05-09T09:29:32.403Z,36.02
2018-05-09T09:30:41.569Z,36.22
2018-05-09T09:31:51.287Z,36.02
2018-05-09T09:33:00.995Z,36.02
2018-05-09T09:34:10.423Z,36.22
2018-05-09T09:35:20.454Z,36.22
2018-05-09T09:36:29.635Z,36.12
2018-05-09T09:37:38.789Z,36.02
2018-05-09T09:38:48.236Z,36.22
2018-05-09T09:39:57.679Z,36.22
2018-05-09T09:41:07.108Z,36.22
2018-05-09T09:42:16.534Z,36.22
2018-05-09T09:43:26.227Z,35.83
2018-05-09T09:44:35.403Z,35.93
2018-05-09T09:45:45.083Z,36.12
2018-05-09T09:46:54.810Z,35.93
2018-05-09T09:48:03.759Z,36
2018-05-09T09:49:13.210Z,35.83
2018-05-09T09:50:22.659Z,36.12
2018-05-09T09:51:31.903Z,36.22
2018-05-09T09:52:41.061Z,35.93
2018-05-09T09:53:50.225Z,35.93
2018-05-09T09:54:59.383Z,36.22
2018-05-09T09:56:09.061Z,35.93
2018-05-09T09:57:18.819Z,35.93
2018-05-09T09:58:28.504Z,35.93
2018-05-09T09:59:37.662Z,35.93
2018-05-09T10:00:47.330Z,36.02
2018-05-09T10:01:57.021Z,36.02
2018-05-09T10:03:06.971Z,36.12
2018-05-09T10:04:16.129Z,36.22
2018-05-09T10:05:25.291Z,36.12
2018-05-09T10:06:34.463Z,36.41
2018-05-09T10:07:43.631Z,36.32
2018-05-09T10:08:52.790Z,36.22
2018-05-09T10:10:02.203Z,36.32
2018-05-09T10:11:11.894Z,36.22
2018-05-09T10:12:21.832Z,36.41
2018-05-09T10:13:31.526Z,36.41
2018-05-09T10:14:40.953Z,36.41
2018-05-09T10:15:50.652Z,36.41
2018-05-09T10:17:00.833Z,36.41
2018-05-09T10:18:10.522Z,36.32
2018-05-09T10:19:20.240Z,36.32
2018-05-09T10:20:29.169Z,36.22
2018-05-09T10:21:38.077Z,36.49
2018-05-09T10:22:48.028Z,36.32
2018-05-09T10:23:57.728Z,36.32
2018-05-09T10:25:07.672Z,36.41
2018-05-09T10:26:17.121Z,36.32
2018-05-09T10:27:26.564Z,36.41
2018-05-09T10:28:35.992Z,36.32
2018-05-09T10:29:45.443Z,36.32
2018-05-09T10:30:54.621Z,36.32
2018-05-09T10:32:03.510Z,36.41
2018-05-09T10:33:12.935Z,36.51
2018-05-09T10:34:22.095Z,36.32
2018-05-09T10:35:31.765Z,36.32
2018-05-09T10:36:41.455Z,36.32
2018-05-09T10:37:50.909Z,36.32
2018-05-09T10:39:00.457Z,36.41
2018-05-09T10:40:10.392Z,36.32
2018-05-09T10:41:19.818Z,36.32
2018-05-09T10:42:29.492Z,36.32
2018-05-09T10:43:39.457Z,36.32
2018-05-09T10:44:48.884Z,36.32
2018-05-09T10:45:58.327Z,36.32
2018-05-09T10:47:07.508Z,36.32
2018-05-09T10:48:16.986Z,36.32
2018-05-09T10:49:26.693Z,36.22
2018-05-09T10:50:36.374Z,36.32
2018-05-09T10:51:45.817Z,36.32
2018-05-09T10:52:55.286Z,36.32
2018-05-09T10:54:05.261Z,36.32
2018-05-09T10:55:14.940Z,36.32
2018-05-09T10:56:24.618Z,36.32
2018-05-09T10:57:34.299Z,36.32
2018-05-09T10:58:43.736Z,36.32
2018-05-09T10:59:53.416Z,36.32
2018-05-09T11:01:02.611Z,36.41
2018-05-09T11:02:12.469Z,36.22
2018-05-09T11:03:21.900Z,36.32
2018-05-09T11:04:31.580Z,36.22
2018-05-09T11:05:40.504Z,36.41
2018-05-09T11:06:50.192Z,36.32
2018-05-09T11:07:59.623Z,36.32
2018-05-09T11:09:08.813Z,36.32
2018-05-09T11:10:18.269Z,36.32
2018-05-09T11:11:27.464Z,36.32
2018-05-09T11:12:37.163Z,36.22
2018-05-09T11:13:46.606Z,36.22
2018-05-09T11:14:56.277Z,36.41
2018-05-09T11:16:05.768Z,36.41
2018-05-09T11:17:15.218Z,36.22
2018-05-09T11:18:24.924Z,36.41
2018-05-09T11:19:33.904Z,36.32
2018-05-09T11:20:43.585Z,36.32
2018-05-09T11:21:53.544Z,36.32
2018-05-09T11:23:02.707Z,36.32
2018-05-09T11:24:12.420Z,36.32
2018-05-09T11:25:22.271Z,36.32
2018-05-09T11:26:31.183Z,36.41
2018-05-09T11:27:40.886Z,36.32
2018-05-09T11:28:50.874Z,36.22
2018-05-09T11:30:00.336Z,36.22
2018-05-09T11:31:09.513Z,36.22
2018-05-09T11:32:19.442Z,36.32
2018-05-09T11:33:28.892Z,36.41
2018-05-09T11:34:37.773Z,36.41
2018-05-09T11:35:47.236Z,36.41
2018-05-09T11:36:56.981Z,36.32
2018-05-09T11:38:06.543Z,36.32
2018-05-09T11:39:16.020Z,36.22
2018-05-09T11:40:25.275Z,36.22
2018-05-09T11:41:34.360Z,36.41
2018-05-09T11:42:43.819Z,36.32
2018-05-09T11:43:53.270Z,36.32
2018-05-09T11:45:02.714Z,36.32
2018-05-09T11:46:12.129Z,36.32
2018-05-09T11:47:21.555Z,36.32
2018-05-09T11:48:30.562Z,36.32
2018-05-09T11:49:39.746Z,36.32
2018-05-09T11:50:48.659Z,36.32
2018-05-09T11:51:58.105Z,36.41
2018-05-09T11:53:08.329Z,36.32
2018-05-09T11:54:17.851Z,36.41
2018-05-09T11:55:27.024Z,36.22
2018-05-09T11:56:36.467Z,36.32
2018-05-09T11:57:45.639Z,36.22
2018-05-09T11:58:55.353Z,36.41
2018-05-09T12:00:04.520Z,36.41
2018-05-09T12:01:13.947Z,36.41
2018-05-09T12:02:23.072Z,36.51
2018-05-09T12:03:33.268Z,36.41
2018-05-09T12:04:43.274Z,36.41
2018-05-09T12:05:52.740Z,36.41
2018-05-09T12:07:01.946Z,36.32
2018-05-09T12:08:11.922Z,36.6
2018-05-09T12:09:21.345Z,36.7
2018-05-09T12:10:30.594Z,36.6
2018-05-09T12:11:41.191Z,36.51
2018-05-09T12:12:50.649Z,36.41
2018-05-09T12:14:00.390Z,36.32
2018-05-09T12:15:09.303Z,36.41
2018-05-09T12:16:19.010Z,36.51
2018-05-09T12:17:28.204Z,36.41
2018-05-09T12:18:37.654Z,36.41
2018-05-09T12:19:47.354Z,36.6
2018-05-09T12:20:57.376Z,36.51
2018-05-09T12:22:06.840Z,36.51
2018-05-09T12:23:16.533Z,36.6
2018-05-09T12:24:25.690Z,36.51
2018-05-09T12:25:35.526Z,36.6
2018-05-09T12:26:45.238Z,36.6
2018-05-09T12:27:54.692Z,36.51
2018-05-09T12:29:03.879Z,36.6
2018-05-09T12:30:13.110Z,36.6
2018-05-09T12:31:22.896Z,36.6
2018-05-09T12:32:32.921Z,36.6
2018-05-09T12:33:42.354Z,36.8
2018-05-09T12:34:51.297Z,36.6
2018-05-09T12:36:01.244Z,36.7
2018-05-09T12:37:10.445Z,36.8
2018-05-09T12:38:19.915Z,36.7
2018-05-09T12:39:29.387Z,36.8
2018-05-09T12:40:39.327Z,36.7
2018-05-09T12:41:48.745Z,36.8
2018-05-09T12:42:58.466Z,36.9
2018-05-09T12:44:08.167Z,36.8
2018-05-09T12:45:17.847Z,36.7
2018-05-09T12:46:27.104Z,36.7
2018-05-09T12:47:36.537Z,36.7
2018-05-09T12:48:45.986Z,36.7
2018-05-09T12:49:55.259Z,36.9
2018-05-09T12:51:05.054Z,36.8
2018-05-09T12:52:13.968Z,36.7
2018-05-09T12:53:23.667Z,36.8
2018-05-09T12:54:33.804Z,36.7
2018-05-09T12:55:43.753Z,36.9
2018-05-09T12:56:53.202Z,36.9
2018-05-09T12:58:02.424Z,36.8
2018-05-09T12:59:12.116Z,36.7
2018-05-09T13:00:21.651Z,36.9
2018-05-09T13:01:31.357Z,36.7
2018-05-09T13:02:41.063Z,36.7
2018-05-09T13:03:50.259Z,36.7
2018-05-09T13:04:59.509Z,36.6
2018-05-09T13:06:09.233Z,36.6
2018-05-09T13:07:18.762Z,36.8
2018-05-09T13:08:28.593Z,36.8
2018-05-09T13:09:38.073Z,36.6
2018-05-09T13:10:46.735Z,36.6
2018-05-09T13:11:56.163Z,36.6
2018-05-09T13:13:05.614Z,36.6
2018-05-09T13:14:15.168Z,36.6
2018-05-09T13:15:24.872Z,36.51
2018-05-09T13:16:34.353Z,36.51
2018-05-09T13:17:43.813Z,36.51
2018-05-09T13:18:53.001Z,36.51
2018-05-09T13:20:02.989Z,36.6
2018-05-09T13:21:12.463Z,36.51
2018-05-09T13:22:21.384Z,36.6
2018-05-09T13:23:30.368Z,36.7
2018-05-09T13:24:39.803Z,36.6
2018-05-09T13:25:49.608Z,36.51
2018-05-09T13:26:59.651Z,36.51
2018-05-09T13:28:09.085Z,36.6
2018-05-09T13:29:18.513Z,36.51
2018-05-09T13:30:27.971Z,36.62
2018-05-09T13:31:37.508Z,36.41
2018-05-09T13:32:47.103Z,36.51
2018-05-09T13:33:56.529Z,36.33
2018-05-09T13:35:05.986Z,36.6
2018-05-09T13:36:15.438Z,36.41
2018-05-09T13:37:24.887Z,36.41
2018-05-09T13:38:34.325Z,36.41
2018-05-09T13:39:43.485Z,36.33
2018-05-09T13:40:52.672Z,36.41
2018-05-09T13:42:02.635Z,36.62
2018-05-09T13:43:11.309Z,36.32
2018-05-09T13:44:21.281Z,36.62
2018-05-09T13:45:30.776Z,36.62
2018-05-09T13:46:40.477Z,36.32
2018-05-09T13:47:49.904Z,36.6
2018-05-09T13:48:59.333Z,36.52
2018-05-09T13:50:08.758Z,36.43
2018-05-09T13:51:18.704Z,36.62
2018-05-09T13:52:28.375Z,36.51
2018-05-09T13:53:37.846Z,36.62
2018-05-09T13:54:47.688Z,36.52
2018-05-09T13:55:57.406Z,36.14
2018-05-09T13:57:06.853Z,36.24
2018-05-09T13:58:16.992Z,36.33
2018-05-09T13:59:26.954Z,36.43
2018-05-09T14:00:36.385Z,36.24
2018-05-09T14:01:45.636Z,36.33
2018-05-09T14:02:55.639Z,36.62
2018-05-09T14:04:05.923Z,36.14
2018-05-09T14:05:16.747Z,36.14
2018-05-09T14:06:26.320Z,36.14
2018-05-09T14:07:35.766Z,36.33
2018-05-09T14:08:45.454Z,36.14
2018-05-09T14:09:55.116Z,36.14
2018-05-09T14:11:04.809Z,36.33
2018-05-09T14:12:14.768Z,36.52
2018-05-09T14:13:24.231Z,36.52
2018-05-09T14:14:34.174Z,36.62
2018-05-09T14:15:43.078Z,36.43
2018-05-09T14:16:52.250Z,36.62
2018-05-09T14:18:01.447Z,36.52
2018-05-09T14:19:10.655Z,36.43
2018-05-09T14:20:20.126Z,36.62
2018-05-09T14:21:29.576Z,36.72
2018-05-09T14:22:39.292Z,36.82
2018-05-09T14:23:48.492Z,36.91
2018-05-09T14:24:58.194Z,36.91
2018-05-09T14:26:07.629Z,36.72
2018-05-09T14:27:17.221Z,36.82
2018-05-09T14:28:26.808Z,36.91
2018-05-09T14:29:36.767Z,37.11
2018-05-09T14:30:46.205Z,36.82
2018-05-09T14:31:55.942Z,37.11
2018-05-09T14:33:05.401Z,37.11
2018-05-09T14:34:15.123Z,36.91
2018-05-09T14:35:24.566Z,37.01
2018-05-09T14:36:33.747Z,37.01
2018-05-09T14:37:43.490Z,36.72
2018-05-09T14:38:53.190Z,36.91
2018-05-09T14:40:02.651Z,36.82
2018-05-09T14:41:11.851Z,36.91
2018-05-09T14:42:21.028Z,36.91
2018-05-09T14:43:30.496Z,37.11
2018-05-09T14:44:40.175Z,37.11
2018-05-09T14:45:49.974Z,37.21
2018-05-09T14:46:59.672Z,37.11
2018-05-09T14:48:09.448Z,37.11
2018-05-09T14:49:18.899Z,37.21
2018-05-09T14:50:28.610Z,37.11
2018-05-09T14:51:38.314Z,37.01
2018-05-09T14:52:47.769Z,37.01
2018-05-09T14:53:57.457Z,37.21
2018-05-09T14:55:06.627Z,37.11
2018-05-09T14:56:16.308Z,37.3
2018-05-09T14:57:25.500Z,37.3
2018-05-09T14:58:34.695Z,37.4
2018-05-09T14:59:43.831Z,37.3
2018-05-09T15:00:53.864Z,37.21